sensor_id;sensor_type;location;lat;lon;timestamp;pressure;altitude;pressure_sealevel;temperature
45701;BMP280;36277;32.852;-116.998;2023-05-10T00:01:40;100007.00;;;25.55
45701;BMP280;36277;32.852;-116.998;2023-05-10T00:04:06;100006.22;;;25.67
45701;BMP280;36277;32.852;-116.998;2023-05-10T00:06:33;100006.00;;;25.75
45701;BMP280;36277;32.852;-116.998;2023-05-10T00:08:59;99996.72;;;25.83
45701;BMP280;36277;32.852;-116.998;2023-05-10T00:11:25;100009.50;;;25.90
45701;BMP280;36277;32.852;-116.998;2023-05-10T00:13:52;100006.56;;;25.98
45701;BMP280;36277;32.852;-116.998;2023-05-10T00:16:18;100003.16;;;26.03
45701;BMP280;36277;32.852;-116.998;2023-05-10T00:18:45;100007.63;;;26.10
45701;BMP280;36277;32.852;-116.998;2023-05-10T00:21:11;100012.34;;;26.16
45701;BMP280;36277;32.852;-116.998;2023-05-10T00:23:37;100007.69;;;26.23
45701;BMP280;36277;32.852;-116.998;2023-05-10T00:26:03;100013.22;;;26.30
45701;BMP280;36277;32.852;-116.998;2023-05-10T00:28:30;100007.91;;;26.35
45701;BMP280;36277;32.852;-116.998;2023-05-10T00:30:56;100012.56;;;26.40
45701;BMP280;36277;32.852;-116.998;2023-05-10T00:33:22;100013.88;;;26.44
45701;BMP280;36277;32.852;-116.998;2023-05-10T00:35:48;100022.84;;;26.46
45701;BMP280;36277;32.852;-116.998;2023-05-10T00:38:15;100025.81;;;26.51
45701;BMP280;36277;32.852;-116.998;2023-05-10T00:40:41;100024.97;;;26.51
45701;BMP280;36277;32.852;-116.998;2023-05-10T00:43:07;100016.47;;;26.52
45701;BMP280;36277;32.852;-116.998;2023-05-10T00:45:36;100015.19;;;26.61
45701;BMP280;36277;32.852;-116.998;2023-05-10T00:48:03;100013.03;;;26.63
45701;BMP280;36277;32.852;-116.998;2023-05-10T00:50:31;100017.94;;;26.55
45701;BMP280;36277;32.852;-116.998;2023-05-10T00:52:59;100022.41;;;26.56
45701;BMP280;36277;32.852;-116.998;2023-05-10T00:55:25;100031.75;;;26.42
45701;BMP280;36277;32.852;-116.998;2023-05-10T00:57:53;100029.25;;;26.47
45701;BMP280;36277;32.852;-116.998;2023-05-10T01:00:19;100040.44;;;26.20
45701;BMP280;36277;32.852;-116.998;2023-05-10T01:02:46;100036.84;;;26.32
45701;BMP280;36277;32.852;-116.998;2023-05-10T01:05:13;100028.78;;;26.43
45701;BMP280;36277;32.852;-116.998;2023-05-10T01:07:39;100037.72;;;26.52
45701;BMP280;36277;32.852;-116.998;2023-05-10T01:10:07;100026.69;;;26.58
45701;BMP280;36277;32.852;-116.998;2023-05-10T01:12:38;100026.63;;;26.39
45701;BMP280;36277;32.852;-116.998;2023-05-10T01:15:07;100039.06;;;26.62
45701;BMP280;36277;32.852;-116.998;2023-05-10T01:17:35;100031.78;;;26.48
45701;BMP280;36277;32.852;-116.998;2023-05-10T01:20:04;100037.78;;;26.58
45701;BMP280;36277;32.852;-116.998;2023-05-10T01:31:19;100043.59;;;26.04
45701;BMP280;36277;32.852;-116.998;2023-05-10T01:33:55;100046.19;;;26.18
45701;BMP280;36277;32.852;-116.998;2023-05-10T01:36:43;100043.59;;;26.10
45701;BMP280;36277;32.852;-116.998;2023-05-10T01:42:25;100056.84;;;26.21
45701;BMP280;36277;32.852;-116.998;2023-05-10T01:45:24;100059.59;;;26.21
45701;BMP280;36277;32.852;-116.998;2023-05-10T01:48:22;100065.75;;;26.17
45701;BMP280;36277;32.852;-116.998;2023-05-10T01:50:50;100058.97;;;26.19
45701;BMP280;36277;32.852;-116.998;2023-05-10T01:53:18;100062.38;;;26.21
45701;BMP280;36277;32.852;-116.998;2023-05-10T01:55:50;100058.09;;;26.19
45701;BMP280;36277;32.852;-116.998;2023-05-10T01:58:28;100065.31;;;26.13
45701;BMP280;36277;32.852;-116.998;2023-05-10T02:00:55;100066.38;;;26.12
45701;BMP280;36277;32.852;-116.998;2023-05-10T02:03:26;100066.63;;;26.17
45701;BMP280;36277;32.852;-116.998;2023-05-10T02:05:55;100067.03;;;26.21
45701;BMP280;36277;32.852;-116.998;2023-05-10T02:08:22;100063.00;;;26.23
45701;BMP280;36277;32.852;-116.998;2023-05-10T02:10:52;100062.56;;;26.26
45701;BMP280;36277;32.852;-116.998;2023-05-10T02:13:19;100070.25;;;26.24
45701;BMP280;36277;32.852;-116.998;2023-05-10T02:15:48;100070.25;;;26.24
45701;BMP280;36277;32.852;-116.998;2023-05-10T02:18:15;100068.72;;;26.09
45701;BMP280;36277;32.852;-116.998;2023-05-10T02:20:45;100077.75;;;25.49
45701;BMP280;36277;32.852;-116.998;2023-05-10T02:23:13;100073.47;;;25.40
45701;BMP280;36277;32.852;-116.998;2023-05-10T02:25:42;100078.06;;;25.27
45701;BMP280;36277;32.852;-116.998;2023-05-10T02:28:11;100083.34;;;25.56
45701;BMP280;36277;32.852;-116.998;2023-05-10T02:30:39;100081.25;;;25.64
45701;BMP280;36277;32.852;-116.998;2023-05-10T02:33:06;100084.69;;;25.73
45701;BMP280;36277;32.852;-116.998;2023-05-10T02:35:34;100089.47;;;25.85
45701;BMP280;36277;32.852;-116.998;2023-05-10T02:38:01;100093.13;;;25.92
45701;BMP280;36277;32.852;-116.998;2023-05-10T02:40:28;100100.16;;;26.01
45701;BMP280;36277;32.852;-116.998;2023-05-10T02:42:57;100097.44;;;26.08
45701;BMP280;36277;32.852;-116.998;2023-05-10T02:45:28;100096.16;;;26.10
45701;BMP280;36277;32.852;-116.998;2023-05-10T02:47:56;100094.69;;;26.14
45701;BMP280;36277;32.852;-116.998;2023-05-10T02:50:25;100106.41;;;26.23
45701;BMP280;36277;32.852;-116.998;2023-05-10T02:53:00;100105.78;;;26.27
45701;BMP280;36277;32.852;-116.998;2023-05-10T02:55:32;100113.03;;;26.28
45701;BMP280;36277;32.852;-116.998;2023-05-10T02:58:02;100114.72;;;26.29
45701;BMP280;36277;32.852;-116.998;2023-05-10T03:00:29;100099.44;;;26.39
45701;BMP280;36277;32.852;-116.998;2023-05-10T03:02:55;100102.09;;;26.07
45701;BMP280;36277;32.852;-116.998;2023-05-10T03:05:21;100101.53;;;26.18
45701;BMP280;36277;32.852;-116.998;2023-05-10T03:07:48;100109.56;;;26.07
45701;BMP280;36277;32.852;-116.998;2023-05-10T03:10:14;100120.22;;;26.10
45701;BMP280;36277;32.852;-116.998;2023-05-10T03:16:04;100118.97;;;26.25
45701;BMP280;36277;32.852;-116.998;2023-05-10T03:18:56;100104.94;;;26.27
45701;BMP280;36277;32.852;-116.998;2023-05-10T03:21:29;100109.19;;;26.29
45701;BMP280;36277;32.852;-116.998;2023-05-10T03:24:09;100122.19;;;26.35
45701;BMP280;36277;32.852;-116.998;2023-05-10T03:26:38;100113.50;;;26.38
45701;BMP280;36277;32.852;-116.998;2023-05-10T03:29:06;100119.06;;;26.44
45701;BMP280;36277;32.852;-116.998;2023-05-10T03:31:34;100123.34;;;26.47
45701;BMP280;36277;32.852;-116.998;2023-05-10T03:34:00;100114.97;;;26.34
45701;BMP280;36277;32.852;-116.998;2023-05-10T03:36:27;100127.50;;;26.24
45701;BMP280;36277;32.852;-116.998;2023-05-10T03:38:53;100120.06;;;26.31
45701;BMP280;36277;32.852;-116.998;2023-05-10T03:41:19;100131.56;;;26.28
45701;BMP280;36277;32.852;-116.998;2023-05-10T03:43:46;100132.38;;;26.28
45701;BMP280;36277;32.852;-116.998;2023-05-10T03:46:12;100122.84;;;26.37
45701;BMP280;36277;32.852;-116.998;2023-05-10T03:48:38;100123.25;;;26.34
45701;BMP280;36277;32.852;-116.998;2023-05-10T03:51:05;100129.44;;;26.36
45701;BMP280;36277;32.852;-116.998;2023-05-10T03:53:31;100129.03;;;26.39
45701;BMP280;36277;32.852;-116.998;2023-05-10T03:55:57;100133.50;;;26.40
45701;BMP280;36277;32.852;-116.998;2023-05-10T03:58:24;100142.47;;;26.42
45701;BMP280;36277;32.852;-116.998;2023-05-10T04:00:51;100145.91;;;26.44
45701;BMP280;36277;32.852;-116.998;2023-05-10T04:03:17;100150.13;;;26.40
45701;BMP280;36277;32.852;-116.998;2023-05-10T04:05:44;100149.06;;;26.41
45701;BMP280;36277;32.852;-116.998;2023-05-10T04:08:10;100165.84;;;26.39
45701;BMP280;36277;32.852;-116.998;2023-05-10T04:10:36;100163.94;;;26.40
45701;BMP280;36277;32.852;-116.998;2023-05-10T04:13:03;100162.25;;;26.39
45701;BMP280;36277;32.852;-116.998;2023-05-10T04:15:29;100159.88;;;26.36
45701;BMP280;36277;32.852;-116.998;2023-05-10T04:17:55;100167.75;;;26.33
45701;BMP280;36277;32.852;-116.998;2023-05-10T04:20:21;100172.00;;;26.35
45701;BMP280;36277;32.852;-116.998;2023-05-10T04:22:48;100181.38;;;26.34
45701;BMP280;36277;32.852;-116.998;2023-05-10T04:25:14;100169.47;;;26.34
45701;BMP280;36277;32.852;-116.998;2023-05-10T04:27:40;100178.59;;;26.34
45701;BMP280;36277;32.852;-116.998;2023-05-10T04:30:07;100177.13;;;26.32
45701;BMP280;36277;32.852;-116.998;2023-05-10T04:32:33;100183.91;;;26.29
45701;BMP280;36277;32.852;-116.998;2023-05-10T04:35:00;100186.66;;;26.29
45701;BMP280;36277;32.852;-116.998;2023-05-10T04:37:29;100184.13;;;26.28
45701;BMP280;36277;32.852;-116.998;2023-05-10T04:39:55;100186.03;;;26.27
45701;BMP280;36277;32.852;-116.998;2023-05-10T04:42:21;100183.69;;;26.24
45701;BMP280;36277;32.852;-116.998;2023-05-10T04:44:48;100191.13;;;26.24
45701;BMP280;36277;32.852;-116.998;2023-05-10T04:47:14;100188.59;;;26.22
45701;BMP280;36277;32.852;-116.998;2023-05-10T04:49:41;100194.13;;;26.22
45701;BMP280;36277;32.852;-116.998;2023-05-10T04:52:08;100192.16;;;26.16
45701;BMP280;36277;32.852;-116.998;2023-05-10T04:54:34;100195.09;;;26.08
45701;BMP280;36277;32.852;-116.998;2023-05-10T04:57:00;100188.75;;;26.14
45701;BMP280;36277;32.852;-116.998;2023-05-10T04:59:26;100193.88;;;26.17
45701;BMP280;36277;32.852;-116.998;2023-05-10T05:01:52;100195.56;;;26.18
45701;BMP280;36277;32.852;-116.998;2023-05-10T05:04:19;100190.22;;;26.17
45701;BMP280;36277;32.852;-116.998;2023-05-10T05:06:45;100192.16;;;26.16
45701;BMP280;36277;32.852;-116.998;2023-05-10T05:09:11;100194.94;;;26.16
45701;BMP280;36277;32.852;-116.998;2023-05-10T05:11:37;100191.28;;;26.16
45701;BMP280;36277;32.852;-116.998;2023-05-10T05:14:04;100190.88;;;26.12
45701;BMP280;36277;32.852;-116.998;2023-05-10T05:16:30;100194.28;;;26.14
45701;BMP280;36277;32.852;-116.998;2023-05-10T05:18:57;100187.03;;;26.13
45701;BMP280;36277;32.852;-116.998;2023-05-10T05:21:24;100185.31;;;26.12
45701;BMP280;36277;32.852;-116.998;2023-05-10T05:23:52;100184.69;;;26.10
45701;BMP280;36277;32.852;-116.998;2023-05-10T05:26:18;100190.22;;;26.10
45701;BMP280;36277;32.852;-116.998;2023-05-10T05:28:44;100195.75;;;26.10
45701;BMP280;36277;32.852;-116.998;2023-05-10T05:31:11;100192.31;;;26.08
45701;BMP280;36277;32.852;-116.998;2023-05-10T05:33:37;100193.38;;;26.07
45701;BMP280;36277;32.852;-116.998;2023-05-10T05:36:05;100187.44;;;26.10
45701;BMP280;36277;32.852;-116.998;2023-05-10T05:38:31;100187.19;;;26.05
45701;BMP280;36277;32.852;-116.998;2023-05-10T05:40:57;100189.97;;;26.05
45701;BMP280;36277;32.852;-116.998;2023-05-10T05:43:24;100177.59;;;26.01
45701;BMP280;36277;32.852;-116.998;2023-05-10T05:45:52;100183.13;;;26.01
45701;BMP280;36277;32.852;-116.998;2023-05-10T05:48:19;100188.44;;;25.96
45701;BMP280;36277;32.852;-116.998;2023-05-10T05:50:45;100194.38;;;25.93
45701;BMP280;36277;32.852;-116.998;2023-05-10T05:53:12;100188.19;;;25.91
45701;BMP280;36277;32.852;-116.998;2023-05-10T05:55:38;100182.81;;;25.83
45701;BMP280;36277;32.852;-116.998;2023-05-10T05:58:04;100190.06;;;25.84
45701;BMP280;36277;32.852;-116.998;2023-05-10T06:00:31;100182.53;;;25.78
45701;BMP280;36277;32.852;-116.998;2023-05-10T06:02:57;100184.53;;;25.84
45701;BMP280;36277;32.852;-116.998;2023-05-10T06:05:23;100179.00;;;25.84
45701;BMP280;36277;32.852;-116.998;2023-05-10T06:07:49;100185.19;;;25.86
45701;BMP280;36277;32.852;-116.998;2023-05-10T06:10:16;100187.13;;;25.86
45701;BMP280;36277;32.852;-116.998;2023-05-10T06:12:42;100173.28;;;25.86
45701;BMP280;36277;32.852;-116.998;2023-05-10T06:15:09;100176.06;;;25.86
45701;BMP280;36277;32.852;-116.998;2023-05-10T06:17:35;100171.59;;;25.85
45701;BMP280;36277;32.852;-116.998;2023-05-10T06:20:01;100177.94;;;25.85
45701;BMP280;36277;32.852;-116.998;2023-05-10T06:22:27;100177.94;;;25.85
45701;BMP280;36277;32.852;-116.998;2023-05-10T06:24:54;100171.59;;;25.85
45701;BMP280;36277;32.852;-116.998;2023-05-10T06:27:20;100180.06;;;25.83
45701;BMP280;36277;32.852;-116.998;2023-05-10T06:29:46;100180.06;;;25.83
45701;BMP280;36277;32.852;-116.998;2023-05-10T06:32:12;100179.41;;;25.81
45701;BMP280;36277;32.852;-116.998;2023-05-10T06:34:38;100179.41;;;25.81
45701;BMP280;36277;32.852;-116.998;2023-05-10T06:37:05;100177.00;;;25.78
45701;BMP280;36277;32.852;-116.998;2023-05-10T06:39:31;100171.72;;;25.77
45701;BMP280;36277;32.852;-116.998;2023-05-10T06:41:57;100165.53;;;25.75
45701;BMP280;36277;32.852;-116.998;2023-05-10T06:44:24;100181.25;;;25.74
45701;BMP280;36277;32.852;-116.998;2023-05-10T06:46:50;100184.00;;;25.74
45701;BMP280;36277;32.852;-116.998;2023-05-10T06:49:18;100180.63;;;25.72
45701;BMP280;36277;32.852;-116.998;2023-05-10T06:51:44;100188.91;;;25.72
45701;BMP280;36277;32.852;-116.998;2023-05-10T06:54:10;100178.03;;;25.71
45701;BMP280;36277;32.852;-116.998;2023-05-10T06:56:36;100182.50;;;25.72
45701;BMP280;36277;32.852;-116.998;2023-05-10T06:59:03;100176.97;;;25.72
45701;BMP280;36277;32.852;-116.998;2023-05-10T07:01:29;100179.06;;;25.63
45701;BMP280;36277;32.852;-116.998;2023-05-10T07:03:55;100164.19;;;25.64
45701;BMP280;36277;32.852;-116.998;2023-05-10T07:06:22;100168.84;;;25.64
45701;BMP280;36277;32.852;-116.998;2023-05-10T07:08:48;100175.25;;;25.64
45701;BMP280;36277;32.852;-116.998;2023-05-10T07:11:14;100173.53;;;25.63
45701;BMP280;36277;32.852;-116.998;2023-05-10T07:13:40;100175.25;;;25.64
45701;BMP280;36277;32.852;-116.998;2023-05-10T07:16:09;100176.94;;;25.65
45701;BMP280;36277;32.852;-116.998;2023-05-10T07:18:36;100178.44;;;25.68
45701;BMP280;36277;32.852;-116.998;2023-05-10T07:21:02;100176.94;;;25.65
45701;BMP280;36277;32.852;-116.998;2023-05-10T07:23:28;100176.91;;;25.59
45701;BMP280;36277;32.852;-116.998;2023-05-10T07:25:55;100187.97;;;25.59
45701;BMP280;36277;32.852;-116.998;2023-05-10T07:28:23;100184.56;;;25.57
45701;BMP280;36277;32.852;-116.998;2023-05-10T07:30:52;100186.63;;;25.48
45701;BMP280;36277;32.852;-116.998;2023-05-10T07:33:18;100192.31;;;25.47
45701;BMP280;36277;32.852;-116.998;2023-05-10T07:35:45;100186.84;;;25.53
45701;BMP280;36277;32.852;-116.998;2023-05-10T07:38:11;100184.72;;;25.55
45701;BMP280;36277;32.852;-116.998;2023-05-10T07:40:38;100186.41;;;25.50
45701;BMP280;36277;32.852;-116.998;2023-05-10T07:43:04;100189.59;;;25.53
45701;BMP280;36277;32.852;-116.998;2023-05-10T07:45:31;100193.03;;;25.55
45701;BMP280;36277;32.852;-116.998;2023-05-10T07:47:57;100190.25;;;25.55
45701;BMP280;36277;32.852;-116.998;2023-05-10T07:50:24;100176.84;;;25.52
45701;BMP280;36277;32.852;-116.998;2023-05-10T07:52:50;100186.63;;;25.48
45701;BMP280;36277;32.852;-116.998;2023-05-10T07:55:18;100189.38;;;25.48
45701;BMP280;36277;32.852;-116.998;2023-05-10T07:57:46;100179.78;;;25.44
45701;BMP280;36277;32.852;-116.998;2023-05-10T08:00:13;100181.91;;;25.42
45701;BMP280;36277;32.852;-116.998;2023-05-10T08:02:42;100180.19;;;25.41
45701;BMP280;36277;32.852;-116.998;2023-05-10T08:05:08;100176.81;;;25.46
45701;BMP280;36277;32.852;-116.998;2023-05-10T08:07:35;100172.72;;;25.42
45701;BMP280;36277;32.852;-116.998;2023-05-10T08:10:02;100180.19;;;25.41
45701;BMP280;36277;32.852;-116.998;2023-05-10T08:12:29;100176.75;;;25.39
45701;BMP280;36277;32.852;-116.998;2023-05-10T08:14:56;100176.09;;;25.37
45701;BMP280;36277;32.852;-116.998;2023-05-10T08:17:22;100177.16;;;25.36
45701;BMP280;36277;32.852;-116.998;2023-05-10T08:19:49;100174.13;;;25.31
45701;BMP280;36277;32.852;-116.998;2023-05-10T08:22:15;100174.13;;;25.31
45701;BMP280;36277;32.852;-116.998;2023-05-10T08:24:42;100174.94;;;25.26
45701;BMP280;36277;32.852;-116.998;2023-05-10T08:27:08;100176.25;;;25.29
45701;BMP280;36277;32.852;-116.998;2023-05-10T08:29:34;100166.84;;;25.24
45701;BMP280;36277;32.852;-116.998;2023-05-10T08:32:01;100183.22;;;25.26
45701;BMP280;36277;32.852;-116.998;2023-05-10T08:34:27;100172.78;;;25.21
45701;BMP280;36277;32.852;-116.998;2023-05-10T08:36:53;100166.16;;;25.16
45701;BMP280;36277;32.852;-116.998;2023-05-10T08:39:20;100165.50;;;25.14
45701;BMP280;36277;32.852;-116.998;2023-05-10T08:41:47;100160.63;;;25.16
45701;BMP280;36277;32.852;-116.998;2023-05-10T08:44:14;100170.22;;;25.20
45701;BMP280;36277;32.852;-116.998;2023-05-10T08:46:45;100175.75;;;25.20
45701;BMP280;36277;32.852;-116.998;2023-05-10T08:49:14;100170.63;;;25.17
45701;BMP280;36277;32.852;-116.998;2023-05-10T08:51:49;100163.41;;;25.16
45701;BMP280;36277;32.852;-116.998;2023-05-10T08:54:17;100155.88;;;25.10
45701;BMP280;36277;32.852;-116.998;2023-05-10T08:56:44;100152.06;;;25.11
45701;BMP280;36277;32.852;-116.998;2023-05-10T08:59:10;100147.59;;;25.10
45701;BMP280;36277;32.852;-116.998;2023-05-10T09:01:39;100148.44;;;25.10
45701;BMP280;36277;32.852;-116.998;2023-05-10T09:04:06;100140.34;;;25.09
45701;BMP280;36277;32.852;-116.998;2023-05-10T09:06:33;100145.03;;;25.08
45701;BMP280;36277;32.852;-116.998;2023-05-10T09:08:59;100140.75;;;25.06
45701;BMP280;36277;32.852;-116.998;2023-05-10T09:11:26;100141.63;;;25.06
45701;BMP280;36277;32.852;-116.998;2023-05-10T09:13:55;100147.31;;;25.05
45701;BMP280;36277;32.852;-116.998;2023-05-10T09:16:22;100138.13;;;24.98
45701;BMP280;36277;32.852;-116.998;2023-05-10T09:18:49;100139.81;;;24.99
45701;BMP280;36277;32.852;-116.998;2023-05-10T09:21:15;100127.28;;;24.96
45701;BMP280;36277;32.852;-116.998;2023-05-10T09:23:45;100138.59;;;25.01
45701;BMP280;36277;32.852;-116.998;2023-05-10T09:26:12;100123.03;;;24.94
45701;BMP280;36277;32.852;-116.998;2023-05-10T09:29:05;100132.38;;;24.93
45701;BMP280;36277;32.852;-116.998;2023-05-10T09:31:49;100131.72;;;24.91
45701;BMP280;36277;32.852;-116.998;2023-05-10T09:34:28;100128.06;;;24.90
45701;BMP280;36277;32.852;-116.998;2023-05-10T09:37:01;100130.84;;;24.90
45701;BMP280;36277;32.852;-116.998;2023-05-10T09:39:36;100124.88;;;24.87
45701;BMP280;36277;32.852;-116.998;2023-05-10T09:42:09;100131.03;;;24.89
45701;BMP280;36277;32.852;-116.998;2023-05-10T09:44:36;100135.88;;;24.80
45701;BMP280;36277;32.852;-116.998;2023-05-10T09:47:03;100132.88;;;24.82
45701;BMP280;36277;32.852;-116.998;2023-05-10T09:49:30;100128.03;;;24.84
45701;BMP280;36277;32.852;-116.998;2023-05-10T09:52:01;100132.09;;;24.88
45701;BMP280;36277;32.852;-116.998;2023-05-10T09:54:28;100134.19;;;24.86
45701;BMP280;36277;32.852;-116.998;2023-05-10T09:56:54;100139.06;;;24.84
45701;BMP280;36277;32.852;-116.998;2023-05-10T09:59:20;100141.81;;;24.84
45701;BMP280;36277;32.852;-116.998;2023-05-10T10:01:50;100145.03;;;24.87
45701;BMP280;36277;32.852;-116.998;2023-05-10T10:04:17;100144.59;;;24.84
45701;BMP280;36277;32.852;-116.998;2023-05-10T10:06:46;100147.75;;;24.81
45701;BMP280;36277;32.852;-116.998;2023-05-10T10:09:14;100146.44;;;24.77
45701;BMP280;36277;32.852;-116.998;2023-05-10T10:11:40;100148.13;;;24.78
45701;BMP280;36277;32.852;-116.998;2023-05-10T10:14:07;100140.91;;;24.77
45701;BMP280;36277;32.852;-116.998;2023-05-10T10:16:33;100146.63;;;24.75
45701;BMP280;36277;32.852;-116.998;2023-05-10T10:19:00;100146.44;;;24.77
45701;BMP280;36277;32.852;-116.998;2023-05-10T10:21:27;100145.75;;;24.75
45701;BMP280;36277;32.852;-116.998;2023-05-10T10:23:53;100144.94;;;24.74
45701;BMP280;36277;32.852;-116.998;2023-05-10T10:26:20;100147.69;;;24.74
45701;BMP280;36277;32.852;-116.998;2023-05-10T10:29:10;100154.47;;;24.72
45701;BMP280;36277;32.852;-116.998;2023-05-10T10:32:03;100148.47;;;24.68
45701;BMP280;36277;32.852;-116.998;2023-05-10T10:34:31;100152.94;;;24.69
45701;BMP280;36277;32.852;-116.998;2023-05-10T10:37:04;100145.53;;;24.70
45701;BMP280;36277;32.852;-116.998;2023-05-10T10:39:31;100153.53;;;24.65
45701;BMP280;36277;32.852;-116.998;2023-05-10T10:41:58;100152.50;;;24.66
45701;BMP280;36277;32.852;-116.998;2023-05-10T10:52:36;100152.59;;;24.58
45701;BMP280;36277;32.852;-116.998;2023-05-10T10:55:27;100152.22;;;24.61
45701;BMP280;36277;32.852;-116.998;2023-05-10T10:57:56;100157.47;;;24.56
45701;BMP280;36277;32.852;-116.998;2023-05-10T11:00:35;100154.69;;;24.56
45701;BMP280;36277;32.852;-116.998;2023-05-10T11:03:06;100158.78;;;24.60
45701;BMP280;36277;32.852;-116.998;2023-05-10T11:05:50;100158.78;;;24.60
45701;BMP280;36277;32.852;-116.998;2023-05-10T11:11:07;100160.44;;;24.54
45701;BMP280;36277;32.852;-116.998;2023-05-10T11:16:18;100161.88;;;24.50
45701;BMP280;36277;32.852;-116.998;2023-05-10T11:21:19;100164.53;;;24.44
45701;BMP280;36277;32.852;-116.998;2023-05-10T11:24:15;100167.28;;;24.44
45701;BMP280;36277;32.852;-116.998;2023-05-10T11:26:42;100172.81;;;24.44
45701;BMP280;36277;32.852;-116.998;2023-05-10T11:29:08;100174.03;;;24.41
45701;BMP280;36277;32.852;-116.998;2023-05-10T11:31:35;100176.63;;;24.43
45701;BMP280;36277;32.852;-116.998;2023-05-10T11:34:01;100178.13;;;24.45
45701;BMP280;36277;32.852;-116.998;2023-05-10T11:36:31;100177.94;;;24.47
45701;BMP280;36277;32.852;-116.998;2023-05-10T11:38:58;100179.38;;;24.43
45701;BMP280;36277;32.852;-116.998;2023-05-10T11:41:26;100176.63;;;24.43
45701;BMP280;36277;32.852;-116.998;2023-05-10T11:43:53;100180.41;;;24.42
45701;BMP280;36277;32.852;-116.998;2023-05-10T11:46:21;100180.59;;;24.40
45701;BMP280;36277;32.852;-116.998;2023-05-10T11:48:57;100182.91;;;24.37
45701;BMP280;36277;32.852;-116.998;2023-05-10T11:51:24;100180.06;;;24.30
45701;BMP280;36277;32.852;-116.998;2023-05-10T11:53:55;100183.66;;;24.31
45701;BMP280;36277;32.852;-116.998;2023-05-10T11:56:22;100188.91;;;24.26
45701;BMP280;36277;32.852;-116.998;2023-05-10T11:58:57;100190.06;;;24.31
45701;BMP280;36277;32.852;-116.998;2023-05-10T12:01:27;100191.66;;;24.26
45701;BMP280;36277;32.852;-116.998;2023-05-10T12:03:55;100191.66;;;24.26
45701;BMP280;36277;32.852;-116.998;2023-05-10T12:06:30;100191.78;;;24.32
45701;BMP280;36277;32.852;-116.998;2023-05-10T12:08:57;100189.97;;;24.25
45701;BMP280;36277;32.852;-116.998;2023-05-10T12:11:25;100191.66;;;24.26
45701;BMP280;36277;32.852;-116.998;2023-05-10T12:13:53;100196.28;;;24.19
45701;BMP280;36277;32.852;-116.998;2023-05-10T12:18:52;100191.00;;;24.24
45701;BMP280;36277;32.852;-116.998;2023-05-10T12:21:19;100197.09;;;24.19
45701;BMP280;36277;32.852;-116.998;2023-05-10T12:23:50;100199.47;;;24.22
45701;BMP280;36277;32.852;-116.998;2023-05-10T12:26:17;100206.25;;;24.20
45701;BMP280;36277;32.852;-116.998;2023-05-10T12:28:43;100207.69;;;24.16
45701;BMP280;36277;32.852;-116.998;2023-05-10T12:31:10;100206.81;;;24.15
45701;BMP280;36277;32.852;-116.998;2023-05-10T12:33:41;100205.38;;;24.19
45701;BMP280;36277;32.852;-116.998;2023-05-10T12:36:12;100204.25;;;24.14
45701;BMP280;36277;32.852;-116.998;2023-05-10T12:38:41;100210.44;;;24.16
45701;BMP280;36277;32.852;-116.998;2023-05-10T12:41:15;100205.31;;;24.13
45701;BMP280;36277;32.852;-116.998;2023-05-10T12:43:41;100208.44;;;24.10
45701;BMP280;36277;32.852;-116.998;2023-05-10T12:46:09;100208.44;;;24.10
45701;BMP280;36277;32.852;-116.998;2023-05-10T12:48:37;100210.16;;;24.11
45701;BMP280;36277;32.852;-116.998;2023-05-10T12:51:04;100214.03;;;24.16
45701;BMP280;36277;32.852;-116.998;2023-05-10T12:53:34;100213.28;;;24.08
45701;BMP280;36277;32.852;-116.998;2023-05-10T12:56:00;100207.09;;;24.06
45701;BMP280;36277;32.852;-116.998;2023-05-10T12:58:27;100216.44;;;24.05
45701;BMP280;36277;32.852;-116.998;2023-05-10T13:00:53;100216.81;;;24.02
45701;BMP280;36277;32.852;-116.998;2023-05-10T13:03:22;100214.03;;;24.02
45701;BMP280;36277;32.852;-116.998;2023-05-10T13:05:48;100217.47;;;24.04
45701;BMP280;36277;32.852;-116.998;2023-05-10T13:08:15;100225.75;;;24.04
45701;BMP280;36277;32.852;-116.998;2023-05-10T13:10:41;100227.00;;;24.02
45701;BMP280;36277;32.852;-116.998;2023-05-10T13:13:07;100229.09;;;24.00
45701;BMP280;36277;32.852;-116.998;2023-05-10T13:15:34;100232.00;;;23.98
45701;BMP280;36277;32.852;-116.998;2023-05-10T13:18:00;100235.81;;;23.97
45701;BMP280;36277;32.852;-116.998;2023-05-10T13:20:27;100237.53;;;23.98
45701;BMP280;36277;32.852;-116.998;2023-05-10T13:22:53;100238.47;;;23.91
45701;BMP280;36277;32.852;-116.998;2023-05-10T13:25:19;100247.03;;;23.96
45701;BMP280;36277;32.852;-116.998;2023-05-10T13:27:46;100252.75;;;23.94
45701;BMP280;36277;32.852;-116.998;2023-05-10T13:30:12;100255.53;;;23.94
45701;BMP280;36277;32.852;-116.998;2023-05-10T13:32:38;100245.91;;;23.90
45701;BMP280;36277;32.852;-116.998;2023-05-10T13:35:05;100248.47;;;23.92
45701;BMP280;36277;32.852;-116.998;2023-05-10T13:37:32;100251.06;;;23.93
45701;BMP280;36277;32.852;-116.998;2023-05-10T13:40:01;100251.97;;;24.00
45701;BMP280;36277;32.852;-116.998;2023-05-10T13:42:27;100254.34;;;23.89
45701;BMP280;36277;32.852;-116.998;2023-05-10T13:44:53;100254.84;;;23.92
45701;BMP280;36277;32.852;-116.998;2023-05-10T13:47:20;100261.59;;;23.90
45701;BMP280;36277;32.852;-116.998;2023-05-10T13:49:47;100265.88;;;23.92
45701;BMP280;36277;32.852;-116.998;2023-05-10T13:52:14;100265.97;;;23.99
45701;BMP280;36277;32.852;-116.998;2023-05-10T13:54:40;100263.38;;;23.97
45701;BMP280;36277;32.852;-116.998;2023-05-10T13:57:07;100264.84;;;23.93
45701;BMP280;36277;32.852;-116.998;2023-05-10T13:59:33;100265.09;;;23.98
45701;BMP280;36277;32.852;-116.998;2023-05-10T14:02:00;100263.13;;;23.92